Virtual Norwegian is not affiliated with Norwegian Air Shuttle in any way.
If you are looking for the real "Norwegian", or you wish to book Norwegian flights, please visit Norwegian.com


We use cookies to ensure you get the best experience on our website.   ACCEPT

LIEO - OLB - Olbia (Olbia Costa Smeralda)

General Info Alternate Airport
ICAO: LIEO Elevation: 37 ft ICAO: LIEA
IATA: OLB Country: Italy IATA: AHO
City: Olbia Charts: Log in to view charts City: Alghero
Name: Olbia Costa Smeralda Hub: No Name Alghero
General Info
ICAO: LIEO
IATA: OLB
City: Olbia
Name: Olbia Costa Smeralda
Elevation: 37 ft
Country: Italy
Charts: Log in to view charts
Hub: No
 
Alternate Airport
ICAO: LIEA
IATA: AHO
City: Alghero
Name: Alghero

Weather
190750Z 24009KT 200V270 CAVOK 28/14 Q1015
Weather
190750Z 24009KT 200V270 CAVOK 28/14 Q1015

Runway Info
05
Length ILS/LOC Course
2445 m 109.90 054
23
Length ILS/LOC Course
2445 m 111.30 234

NOTAMs
NOTAMs currently unavailable.
NOTAMs
NOTAMs currently unavailable

Route map
Airport
Airport (hub)